sensor_id;sensor_type;location;lat;lon;timestamp;P1;durP1;ratioP1;P2;durP2;ratioP2
70433;SDS011;57876;47.792;12.960;2022-08-25T00:00:22;6.47;;;3.00;;
70433;SDS011;57876;47.792;12.960;2022-08-25T00:02:47;6.33;;;2.83;;
70433;SDS011;57876;47.792;12.960;2022-08-25T00:05:11;7.18;;;2.97;;
70433;SDS011;57876;47.792;12.960;2022-08-25T00:07:36;8.43;;;3.80;;
70433;SDS011;57876;47.792;12.960;2022-08-25T00:10:00;6.53;;;2.93;;
70433;SDS011;57876;47.792;12.960;2022-08-25T00:12:25;6.13;;;2.85;;
70433;SDS011;57876;47.792;12.960;2022-08-25T00:14:49;6.63;;;3.13;;
70433;SDS011;57876;47.792;12.960;2022-08-25T00:17:14;6.70;;;2.90;;
70433;SDS011;57876;47.792;12.960;2022-08-25T00:19:38;5.97;;;3.07;;
70433;SDS011;57876;47.792;12.960;2022-08-25T00:22:02;6.70;;;3.03;;
70433;SDS011;57876;47.792;12.960;2022-08-25T00:24:28;7.45;;;3.58;;
70433;SDS011;57876;47.792;12.960;2022-08-25T00:26:54;7.07;;;3.35;;
70433;SDS011;57876;47.792;12.960;2022-08-25T00:29:20;6.43;;;2.95;;
70433;SDS011;57876;47.792;12.960;2022-08-25T00:31:46;6.75;;;3.17;;
70433;SDS011;57876;47.792;12.960;2022-08-25T00:34:15;7.80;;;3.23;;
70433;SDS011;57876;47.792;12.960;2022-08-25T00:36:42;6.78;;;2.90;;
70433;SDS011;57876;47.792;12.960;2022-08-25T00:39:07;5.90;;;2.92;;
70433;SDS011;57876;47.792;12.960;2022-08-25T00:41:33;7.10;;;3.27;;
70433;SDS011;57876;47.792;12.960;2022-08-25T00:43:59;7.30;;;3.20;;
70433;SDS011;57876;47.792;12.960;2022-08-25T00:46:29;5.97;;;2.75;;
70433;SDS011;57876;47.792;12.960;2022-08-25T00:49:10;6.13;;;3.08;;
70433;SDS011;57876;47.792;12.960;2022-08-25T00:51:50;6.90;;;2.78;;
70433;SDS011;57876;47.792;12.960;2022-08-25T00:54:19;6.67;;;2.83;;
70433;SDS011;57876;47.792;12.960;2022-08-25T00:56:47;6.55;;;2.90;;
70433;SDS011;57876;47.792;12.960;2022-08-25T00:59:14;6.03;;;2.90;;
70433;SDS011;57876;47.792;12.960;2022-08-25T01:01:39;6.45;;;2.90;;
70433;SDS011;57876;47.792;12.960;2022-08-25T01:04:04;6.37;;;3.00;;
70433;SDS011;57876;47.792;12.960;2022-08-25T01:06:28;6.88;;;3.17;;
70433;SDS011;57876;47.792;12.960;2022-08-25T01:08:56;8.13;;;3.00;;
70433;SDS011;57876;47.792;12.960;2022-08-25T01:11:21;7.65;;;3.05;;
70433;SDS011;57876;47.792;12.960;2022-08-25T01:13:47;6.23;;;3.10;;
70433;SDS011;57876;47.792;12.960;2022-08-25T01:16:15;6.70;;;2.90;;
70433;SDS011;57876;47.792;12.960;2022-08-25T01:18:41;6.20;;;3.00;;
70433;SDS011;57876;47.792;12.960;2022-08-25T01:21:14;6.57;;;2.80;;
70433;SDS011;57876;47.792;12.960;2022-08-25T01:23:41;6.57;;;2.90;;
70433;SDS011;57876;47.792;12.960;2022-08-25T01:28:38;6.53;;;3.10;;
70433;SDS011;57876;47.792;12.960;2022-08-25T01:31:23;6.40;;;3.15;;
70433;SDS011;57876;47.792;12.960;2022-08-25T01:33:49;5.90;;;2.78;;
70433;SDS011;57876;47.792;12.960;2022-08-25T01:36:16;8.03;;;3.13;;
70433;SDS011;57876;47.792;12.960;2022-08-25T01:38:41;6.68;;;2.90;;
70433;SDS011;57876;47.792;12.960;2022-08-25T01:41:06;8.13;;;3.23;;
70433;SDS011;57876;47.792;12.960;2022-08-25T01:43:34;6.10;;;2.80;;
70433;SDS011;57876;47.792;12.960;2022-08-25T01:46:00;6.72;;;3.30;;
70433;SDS011;57876;47.792;12.960;2022-08-25T01:48:25;6.93;;;3.13;;
70433;SDS011;57876;47.792;12.960;2022-08-25T01:50:49;6.45;;;3.05;;
70433;SDS011;57876;47.792;12.960;2022-08-25T01:53:27;6.27;;;3.00;;
70433;SDS011;57876;47.792;12.960;2022-08-25T01:55:52;6.68;;;2.90;;
70433;SDS011;57876;47.792;12.960;2022-08-25T01:58:26;6.50;;;2.97;;
70433;SDS011;57876;47.792;12.960;2022-08-25T02:00:53;6.85;;;3.00;;
70433;SDS011;57876;47.792;12.960;2022-08-25T02:03:20;6.00;;;2.92;;
70433;SDS011;57876;47.792;12.960;2022-08-25T02:05:45;5.90;;;2.75;;
70433;SDS011;57876;47.792;12.960;2022-08-25T02:08:10;6.43;;;3.30;;
70433;SDS011;57876;47.792;12.960;2022-08-25T02:10:35;5.70;;;2.87;;
70433;SDS011;57876;47.792;12.960;2022-08-25T02:12:59;7.20;;;3.07;;
70433;SDS011;57876;47.792;12.960;2022-08-25T02:15:23;5.90;;;2.87;;
70433;SDS011;57876;47.792;12.960;2022-08-25T02:17:48;6.40;;;3.20;;
70433;SDS011;57876;47.792;12.960;2022-08-25T02:20:13;7.77;;;3.20;;
70433;SDS011;57876;47.792;12.960;2022-08-25T02:22:37;6.43;;;3.10;;
70433;SDS011;57876;47.792;12.960;2022-08-25T02:25:02;6.55;;;3.00;;
70433;SDS011;57876;47.792;12.960;2022-08-25T02:27:27;6.03;;;3.07;;
70433;SDS011;57876;47.792;12.960;2022-08-25T02:29:51;6.30;;;3.10;;
70433;SDS011;57876;47.792;12.960;2022-08-25T02:32:16;5.83;;;3.13;;
70433;SDS011;57876;47.792;12.960;2022-08-25T02:34:40;6.53;;;3.40;;
70433;SDS011;57876;47.792;12.960;2022-08-25T02:37:04;6.63;;;3.10;;
70433;SDS011;57876;47.792;12.960;2022-08-25T02:39:29;6.77;;;3.07;;
70433;SDS011;57876;47.792;12.960;2022-08-25T02:41:53;7.03;;;3.10;;
70433;SDS011;57876;47.792;12.960;2022-08-25T02:44:17;6.05;;;2.97;;
70433;SDS011;57876;47.792;12.960;2022-08-25T02:46:42;6.57;;;3.07;;
70433;SDS011;57876;47.792;12.960;2022-08-25T02:49:06;6.70;;;3.17;;
70433;SDS011;57876;47.792;12.960;2022-08-25T02:51:31;6.78;;;3.30;;
70433;SDS011;57876;47.792;12.960;2022-08-25T02:53:58;6.07;;;3.03;;
70433;SDS011;57876;47.792;12.960;2022-08-25T02:56:25;6.10;;;3.13;;
70433;SDS011;57876;47.792;12.960;2022-08-25T02:58:49;7.57;;;3.53;;
70433;SDS011;57876;47.792;12.960;2022-08-25T03:01:15;6.60;;;3.03;;
70433;SDS011;57876;47.792;12.960;2022-08-25T03:03:41;7.25;;;3.10;;
70433;SDS011;57876;47.792;12.960;2022-08-25T03:06:07;6.40;;;3.20;;
70433;SDS011;57876;47.792;12.960;2022-08-25T03:08:32;7.00;;;3.20;;
70433;SDS011;57876;47.792;12.960;2022-08-25T03:10:56;6.27;;;2.83;;
70433;SDS011;57876;47.792;12.960;2022-08-25T03:13:21;7.80;;;3.27;;
70433;SDS011;57876;47.792;12.960;2022-08-25T03:15:45;6.40;;;3.10;;
70433;SDS011;57876;47.792;12.960;2022-08-25T03:18:10;6.50;;;3.43;;
70433;SDS011;57876;47.792;12.960;2022-08-25T03:20:34;6.82;;;3.38;;
70433;SDS011;57876;47.792;12.960;2022-08-25T03:22:59;6.67;;;3.27;;
70433;SDS011;57876;47.792;12.960;2022-08-25T03:25:23;6.57;;;3.13;;
70433;SDS011;57876;47.792;12.960;2022-08-25T03:28:06;7.35;;;3.20;;
70433;SDS011;57876;47.792;12.960;2022-08-25T03:30:31;6.55;;;3.17;;
70433;SDS011;57876;47.792;12.960;2022-08-25T03:32:55;6.80;;;3.30;;
70433;SDS011;57876;47.792;12.960;2022-08-25T03:35:20;6.00;;;3.27;;
70433;SDS011;57876;47.792;12.960;2022-08-25T03:37:44;8.15;;;3.42;;
70433;SDS011;57876;47.792;12.960;2022-08-25T03:40:10;7.80;;;3.53;;
70433;SDS011;57876;47.792;12.960;2022-08-25T03:42:39;6.70;;;3.33;;
70433;SDS011;57876;47.792;12.960;2022-08-25T03:45:08;6.82;;;3.47;;
70433;SDS011;57876;47.792;12.960;2022-08-25T03:47:34;6.13;;;2.97;;
70433;SDS011;57876;47.792;12.960;2022-08-25T03:49:59;6.70;;;3.40;;
70433;SDS011;57876;47.792;12.960;2022-08-25T03:52:23;7.33;;;3.30;;
70433;SDS011;57876;47.792;12.960;2022-08-25T03:54:47;8.50;;;3.50;;
70433;SDS011;57876;47.792;12.960;2022-08-25T03:57:12;7.03;;;3.33;;
70433;SDS011;57876;47.792;12.960;2022-08-25T03:59:36;6.70;;;3.27;;
70433;SDS011;57876;47.792;12.960;2022-08-25T04:02:01;6.65;;;3.33;;
70433;SDS011;57876;47.792;12.960;2022-08-25T04:04:26;6.77;;;3.43;;
70433;SDS011;57876;47.792;12.960;2022-08-25T04:06:50;6.83;;;3.20;;
70433;SDS011;57876;47.792;12.960;2022-08-25T04:09:15;7.22;;;3.35;;
70433;SDS011;57876;47.792;12.960;2022-08-25T04:11:40;7.20;;;3.63;;
70433;SDS011;57876;47.792;12.960;2022-08-25T04:14:04;6.53;;;3.30;;
70433;SDS011;57876;47.792;12.960;2022-08-25T04:16:30;7.30;;;3.40;;
70433;SDS011;57876;47.792;12.960;2022-08-25T04:18:56;7.40;;;3.40;;
70433;SDS011;57876;47.792;12.960;2022-08-25T04:21:22;7.65;;;3.50;;
70433;SDS011;57876;47.792;12.960;2022-08-25T04:23:48;6.45;;;3.20;;
70433;SDS011;57876;47.792;12.960;2022-08-25T04:26:23;6.75;;;3.25;;
70433;SDS011;57876;47.792;12.960;2022-08-25T04:28:57;6.37;;;2.90;;
70433;SDS011;57876;47.792;12.960;2022-08-25T04:31:23;6.82;;;3.30;;
70433;SDS011;57876;47.792;12.960;2022-08-25T04:33:47;6.45;;;2.95;;
70433;SDS011;57876;47.792;12.960;2022-08-25T04:36:13;6.67;;;3.43;;
70433;SDS011;57876;47.792;12.960;2022-08-25T04:38:40;7.18;;;3.60;;
70433;SDS011;57876;47.792;12.960;2022-08-25T04:41:06;6.13;;;3.03;;
70433;SDS011;57876;47.792;12.960;2022-08-25T04:43:31;6.70;;;3.20;;
70433;SDS011;57876;47.792;12.960;2022-08-25T04:45:57;6.63;;;3.20;;
70433;SDS011;57876;47.792;12.960;2022-08-25T04:48:22;6.97;;;3.30;;
70433;SDS011;57876;47.792;12.960;2022-08-25T04:50:46;6.10;;;3.10;;
70433;SDS011;57876;47.792;12.960;2022-08-25T04:53:11;7.23;;;3.10;;
70433;SDS011;57876;47.792;12.960;2022-08-25T04:55:39;6.53;;;3.17;;
70433;SDS011;57876;47.792;12.960;2022-08-25T04:58:05;7.35;;;3.38;;
70433;SDS011;57876;47.792;12.960;2022-08-25T05:00:29;6.33;;;3.20;;
70433;SDS011;57876;47.792;12.960;2022-08-25T05:02:54;6.95;;;3.22;;
70433;SDS011;57876;47.792;12.960;2022-08-25T05:05:18;6.33;;;3.20;;
70433;SDS011;57876;47.792;12.960;2022-08-25T05:07:43;6.40;;;3.07;;
70433;SDS011;57876;47.792;12.960;2022-08-25T05:10:07;6.20;;;2.90;;
70433;SDS011;57876;47.792;12.960;2022-08-25T05:12:31;6.73;;;3.10;;
70433;SDS011;57876;47.792;12.960;2022-08-25T05:14:56;6.30;;;3.20;;
70433;SDS011;57876;47.792;12.960;2022-08-25T05:17:41;6.37;;;3.30;;
70433;SDS011;57876;47.792;12.960;2022-08-25T05:20:05;6.73;;;3.30;;
70433;SDS011;57876;47.792;12.960;2022-08-25T05:22:30;7.15;;;3.10;;
70433;SDS011;57876;47.792;12.960;2022-08-25T05:24:54;7.20;;;3.43;;
70433;SDS011;57876;47.792;12.960;2022-08-25T05:27:19;6.83;;;3.30;;
70433;SDS011;57876;47.792;12.960;2022-08-25T05:29:43;6.15;;;3.17;;
70433;SDS011;57876;47.792;12.960;2022-08-25T05:32:07;6.97;;;3.10;;
70433;SDS011;57876;47.792;12.960;2022-08-25T05:34:34;6.88;;;3.63;;
70433;SDS011;57876;47.792;12.960;2022-08-25T05:36:58;6.80;;;3.57;;
70433;SDS011;57876;47.792;12.960;2022-08-25T05:39:26;7.45;;;3.25;;
70433;SDS011;57876;47.792;12.960;2022-08-25T05:41:50;6.37;;;3.33;;
70433;SDS011;57876;47.792;12.960;2022-08-25T05:44:15;7.00;;;3.30;;
70433;SDS011;57876;47.792;12.960;2022-08-25T05:46:40;6.60;;;3.30;;
70433;SDS011;57876;47.792;12.960;2022-08-25T05:49:04;6.75;;;3.35;;
70433;SDS011;57876;47.792;12.960;2022-08-25T05:51:29;6.93;;;3.33;;
70433;SDS011;57876;47.792;12.960;2022-08-25T05:53:53;6.53;;;3.40;;
70433;SDS011;57876;47.792;12.960;2022-08-25T05:56:18;6.60;;;3.28;;
70433;SDS011;57876;47.792;12.960;2022-08-25T05:58:43;7.43;;;3.43;;
70433;SDS011;57876;47.792;12.960;2022-08-25T06:01:08;7.10;;;3.58;;
70433;SDS011;57876;47.792;12.960;2022-08-25T06:03:52;7.13;;;3.30;;
70433;SDS011;57876;47.792;12.960;2022-08-25T06:06:17;44.00;;;9.73;;
70433;SDS011;57876;47.792;12.960;2022-08-25T06:08:42;504.40;;;91.75;;
70433;SDS011;57876;47.792;12.960;2022-08-25T06:11:07;229.40;;;36.53;;
70433;SDS011;57876;47.792;12.960;2022-08-25T06:13:32;115.47;;;22.17;;
70433;SDS011;57876;47.792;12.960;2022-08-25T06:15:57;183.45;;;27.27;;
70433;SDS011;57876;47.792;12.960;2022-08-25T06:18:22;60.22;;;12.88;;
70433;SDS011;57876;47.792;12.960;2022-08-25T06:20:47;60.23;;;12.13;;
70433;SDS011;57876;47.792;12.960;2022-08-25T06:23:11;102.47;;;19.47;;
70433;SDS011;57876;47.792;12.960;2022-08-25T06:25:36;56.83;;;12.10;;
70433;SDS011;57876;47.792;12.960;2022-08-25T06:28:00;76.87;;;15.73;;
70433;SDS011;57876;47.792;12.960;2022-08-25T06:30:25;57.90;;;13.50;;
70433;SDS011;57876;47.792;12.960;2022-08-25T06:32:52;48.93;;;12.43;;
70433;SDS011;57876;47.792;12.960;2022-08-25T06:35:32;43.08;;;12.82;;
70433;SDS011;57876;47.792;12.960;2022-08-25T06:38:04;49.17;;;12.32;;
70433;SDS011;57876;47.792;12.960;2022-08-25T06:40:28;43.83;;;11.90;;
70433;SDS011;57876;47.792;12.960;2022-08-25T06:42:53;51.03;;;12.63;;
70433;SDS011;57876;47.792;12.960;2022-08-25T06:45:17;43.60;;;12.37;;
70433;SDS011;57876;47.792;12.960;2022-08-25T06:47:42;42.37;;;11.53;;
70433;SDS011;57876;47.792;12.960;2022-08-25T06:50:06;41.28;;;12.55;;
70433;SDS011;57876;47.792;12.960;2022-08-25T06:52:31;43.27;;;10.90;;
70433;SDS011;57876;47.792;12.960;2022-08-25T06:54:56;34.83;;;10.30;;
70433;SDS011;57876;47.792;12.960;2022-08-25T06:57:20;37.23;;;9.93;;
70433;SDS011;57876;47.792;12.960;2022-08-25T06:59:45;28.10;;;9.37;;
70433;SDS011;57876;47.792;12.960;2022-08-25T07:05:10;36.83;;;9.95;;
70433;SDS011;57876;47.792;12.960;2022-08-25T07:07:40;31.77;;;8.75;;
70433;SDS011;57876;47.792;12.960;2022-08-25T07:10:07;24.93;;;8.37;;
70433;SDS011;57876;47.792;12.960;2022-08-25T07:12:32;27.10;;;8.18;;
70433;SDS011;57876;47.792;12.960;2022-08-25T07:14:56;31.47;;;8.37;;
70433;SDS011;57876;47.792;12.960;2022-08-25T07:17:21;26.60;;;8.63;;
70433;SDS011;57876;47.792;12.960;2022-08-25T07:19:46;29.60;;;8.50;;
70433;SDS011;57876;47.792;12.960;2022-08-25T07:22:11;30.08;;;8.57;;
70433;SDS011;57876;47.792;12.960;2022-08-25T07:24:35;21.13;;;7.37;;
70433;SDS011;57876;47.792;12.960;2022-08-25T07:26:59;28.03;;;8.97;;
70433;SDS011;57876;47.792;12.960;2022-08-25T07:29:25;20.83;;;8.53;;
70433;SDS011;57876;47.792;12.960;2022-08-25T07:31:51;21.08;;;7.03;;
70433;SDS011;57876;47.792;12.960;2022-08-25T07:34:15;22.43;;;6.97;;
70433;SDS011;57876;47.792;12.960;2022-08-25T07:36:59;22.50;;;6.82;;
70433;SDS011;57876;47.792;12.960;2022-08-25T07:39:24;18.42;;;6.57;;
70433;SDS011;57876;47.792;12.960;2022-08-25T07:41:49;17.77;;;5.82;;
70433;SDS011;57876;47.792;12.960;2022-08-25T07:44:15;19.83;;;6.27;;
70433;SDS011;57876;47.792;12.960;2022-08-25T07:46:39;18.77;;;6.73;;
70433;SDS011;57876;47.792;12.960;2022-08-25T07:49:04;17.10;;;6.32;;
70433;SDS011;57876;47.792;12.960;2022-08-25T07:51:29;16.43;;;5.30;;
70433;SDS011;57876;47.792;12.960;2022-08-25T07:53:53;22.83;;;5.47;;
70433;SDS011;57876;47.792;12.960;2022-08-25T07:56:17;17.00;;;6.00;;
70433;SDS011;57876;47.792;12.960;2022-08-25T07:58:42;13.27;;;5.00;;
70433;SDS011;57876;47.792;12.960;2022-08-25T08:01:19;14.52;;;5.13;;
70433;SDS011;57876;47.792;12.960;2022-08-25T08:03:45;14.25;;;5.97;;
70433;SDS011;57876;47.792;12.960;2022-08-25T08:06:11;14.10;;;5.10;;
70433;SDS011;57876;47.792;12.960;2022-08-25T08:08:37;13.90;;;5.03;;
70433;SDS011;57876;47.792;12.960;2022-08-25T08:11:12;11.80;;;4.65;;
70433;SDS011;57876;47.792;12.960;2022-08-25T08:13:39;11.07;;;4.78;;
70433;SDS011;57876;47.792;12.960;2022-08-25T08:16:07;12.00;;;4.50;;
70433;SDS011;57876;47.792;12.960;2022-08-25T08:18:32;8.52;;;4.07;;
70433;SDS011;57876;47.792;12.960;2022-08-25T08:20:57;12.13;;;4.90;;
70433;SDS011;57876;47.792;12.960;2022-08-25T08:23:21;12.03;;;5.50;;
70433;SDS011;57876;47.792;12.960;2022-08-25T08:25:50;13.35;;;4.82;;
70433;SDS011;57876;47.792;12.960;2022-08-25T08:28:14;11.70;;;4.93;;
70433;SDS011;57876;47.792;12.960;2022-08-25T08:30:39;10.43;;;4.57;;
70433;SDS011;57876;47.792;12.960;2022-08-25T08:33:03;10.13;;;4.27;;
70433;SDS011;57876;47.792;12.960;2022-08-25T08:35:28;11.87;;;4.27;;
70433;SDS011;57876;47.792;12.960;2022-08-25T08:37:53;10.75;;;4.20;;
70433;SDS011;57876;47.792;12.960;2022-08-25T08:40:17;10.53;;;4.07;;
70433;SDS011;57876;47.792;12.960;2022-08-25T08:45:49;8.60;;;3.70;;
70433;SDS011;57876;47.792;12.960;2022-08-25T08:50:50;10.60;;;3.70;;
70433;SDS011;57876;47.792;12.960;2022-08-25T08:56:10;8.55;;;4.03;;
70433;SDS011;57876;47.792;12.960;2022-08-25T08:58:51;8.83;;;3.93;;
70433;SDS011;57876;47.792;12.960;2022-08-25T09:01:54;8.85;;;3.83;;
70433;SDS011;57876;47.792;12.960;2022-08-25T09:04:12;7.57;;;3.40;;
70433;SDS011;57876;47.792;12.960;2022-08-25T09:06:44;15.52;;;5.10;;
70433;SDS011;57876;47.792;12.960;2022-08-25T09:09:12;7.72;;;3.83;;
70433;SDS011;57876;47.792;12.960;2022-08-25T09:11:54;186.93;;;29.13;;
70433;SDS011;57876;47.792;12.960;2022-08-25T09:14:48;281.23;;;39.55;;
70433;SDS011;57876;47.792;12.960;2022-08-25T09:31:22;293.30;;;46.90;;
70433;SDS011;57876;47.792;12.960;2022-08-25T09:33:49;269.40;;;45.08;;
70433;SDS011;57876;47.792;12.960;2022-08-25T09:36:18;228.57;;;42.17;;
70433;SDS011;57876;47.792;12.960;2022-08-25T09:38:42;221.20;;;42.50;;
70433;SDS011;57876;47.792;12.960;2022-08-25T09:41:07;232.20;;;42.70;;
70433;SDS011;57876;47.792;12.960;2022-08-25T09:43:33;221.77;;;43.50;;
70433;SDS011;57876;47.792;12.960;2022-08-25T09:46:45;210.25;;;38.47;;
70433;SDS011;57876;47.792;12.960;2022-08-25T09:48:52;195.70;;;37.35;;
70433;SDS011;57876;47.792;12.960;2022-08-25T09:51:26;204.23;;;38.58;;
70433;SDS011;57876;47.792;12.960;2022-08-25T09:56:46;181.18;;;35.53;;
70433;SDS011;57876;47.792;12.960;2022-08-25T09:59:20;164.15;;;35.50;;
70433;SDS011;57876;47.792;12.960;2022-08-25T10:04:14;137.48;;;31.10;;
70433;SDS011;57876;47.792;12.960;2022-08-25T10:06:49;157.53;;;33.63;;
70433;SDS011;57876;47.792;12.960;2022-08-25T10:09:21;153.20;;;32.55;;
70433;SDS011;57876;47.792;12.960;2022-08-25T10:11:52;153.73;;;31.85;;
70433;SDS011;57876;47.792;12.960;2022-08-25T10:14:19;126.73;;;29.17;;
70433;SDS011;57876;47.792;12.960;2022-08-25T10:16:51;127.90;;;28.73;;
70433;SDS011;57876;47.792;12.960;2022-08-25T10:19:23;101.40;;;26.08;;
70433;SDS011;57876;47.792;12.960;2022-08-25T10:24:34;101.20;;;26.30;;
70433;SDS011;57876;47.792;12.960;2022-08-25T10:37:31;92.53;;;24.25;;
70433;SDS011;57876;47.792;12.960;2022-08-25T10:43:05;77.68;;;21.38;;
70433;SDS011;57876;47.792;12.960;2022-08-25T10:45:39;62.83;;;20.45;;
70433;SDS011;57876;47.792;12.960;2022-08-25T10:56:16;176.93;;;33.65;;
70433;SDS011;57876;47.792;12.960;2022-08-25T11:04:49;89.07;;;22.48;;
70433;SDS011;57876;47.792;12.960;2022-08-25T11:07:27;73.57;;;20.13;;
70433;SDS011;57876;47.792;12.960;2022-08-25T11:09:58;92.10;;;25.23;;
70433;SDS011;57876;47.792;12.960;2022-08-25T11:12:30;62.42;;;19.48;;
70433;SDS011;57876;47.792;12.960;2022-08-25T11:15:01;57.92;;;16.63;;
70433;SDS011;57876;47.792;12.960;2022-08-25T11:20:18;39.23;;;13.23;;
70433;SDS011;57876;47.792;12.960;2022-08-25T11:22:50;34.90;;;12.02;;
70433;SDS011;57876;47.792;12.960;2022-08-25T11:25:34;46.97;;;15.40;;
70433;SDS011;57876;47.792;12.960;2022-08-25T11:30:49;42.72;;;13.55;;
70433;SDS011;57876;47.792;12.960;2022-08-25T11:33:15;34.37;;;13.03;;
70433;SDS011;57876;47.792;12.960;2022-08-25T11:35:55;24.08;;;9.20;;
70433;SDS011;57876;47.792;12.960;2022-08-25T11:38:42;25.85;;;9.52;;
70433;SDS011;57876;47.792;12.960;2022-08-25T11:41:33;21.73;;;8.18;;
70433;SDS011;57876;47.792;12.960;2022-08-25T11:53:38;17.75;;;7.53;;
70433;SDS011;57876;47.792;12.960;2022-08-25T11:56:05;22.00;;;8.60;;
70433;SDS011;57876;47.792;12.960;2022-08-25T12:01:03;20.10;;;7.60;;
70433;SDS011;57876;47.792;12.960;2022-08-25T12:06:13;27.33;;;9.70;;
70433;SDS011;57876;47.792;12.960;2022-08-25T12:08:53;23.05;;;9.55;;
70433;SDS011;57876;47.792;12.960;2022-08-25T12:11:42;24.48;;;9.57;;
70433;SDS011;57876;47.792;12.960;2022-08-25T12:14:13;23.50;;;9.03;;
70433;SDS011;57876;47.792;12.960;2022-08-25T12:22:37;22.83;;;8.35;;
70433;SDS011;57876;47.792;12.960;2022-08-25T12:24:49;18.90;;;7.90;;
70433;SDS011;57876;47.792;12.960;2022-08-25T12:27:30;21.83;;;9.33;;
70433;SDS011;57876;47.792;12.960;2022-08-25T12:37:56;19.83;;;7.18;;
70433;SDS011;57876;47.792;12.960;2022-08-25T12:40:25;20.27;;;8.30;;
70433;SDS011;57876;47.792;12.960;2022-08-25T12:42:59;17.17;;;7.15;;
70433;SDS011;57876;47.792;12.960;2022-08-25T12:45:32;19.70;;;8.25;;
70433;SDS011;57876;47.792;12.960;2022-08-25T12:50:58;18.30;;;7.85;;
70433;SDS011;57876;47.792;12.960;2022-08-25T12:53:27;18.80;;;7.30;;
70433;SDS011;57876;47.792;12.960;2022-08-25T12:56:05;20.00;;;7.63;;
70433;SDS011;57876;47.792;12.960;2022-08-25T13:01:25;18.73;;;7.22;;
70433;SDS011;57876;47.792;12.960;2022-08-25T13:14:43;15.55;;;6.82;;
70433;SDS011;57876;47.792;12.960;2022-08-25T13:17:23;15.68;;;6.35;;
70433;SDS011;57876;47.792;12.960;2022-08-25T13:19:51;14.97;;;6.40;;
70433;SDS011;57876;47.792;12.960;2022-08-25T13:22:15;15.77;;;6.90;;
70433;SDS011;57876;47.792;12.960;2022-08-25T13:24:41;16.30;;;6.65;;
70433;SDS011;57876;47.792;12.960;2022-08-25T13:27:08;14.80;;;7.13;;
70433;SDS011;57876;47.792;12.960;2022-08-25T13:29:51;17.98;;;7.13;;
70433;SDS011;57876;47.792;12.960;2022-08-25T13:32:29;13.68;;;6.10;;
70433;SDS011;57876;47.792;12.960;2022-08-25T13:35:06;16.42;;;6.40;;
70433;SDS011;57876;47.792;12.960;2022-08-25T13:37:42;13.52;;;6.93;;
70433;SDS011;57876;47.792;12.960;2022-08-25T13:40:10;12.70;;;5.90;;
70433;SDS011;57876;47.792;12.960;2022-08-25T13:42:36;13.05;;;6.15;;
70433;SDS011;57876;47.792;12.960;2022-08-25T13:45:05;14.63;;;6.40;;
70433;SDS011;57876;47.792;12.960;2022-08-25T13:47:34;14.27;;;6.03;;
70433;SDS011;57876;47.792;12.960;2022-08-25T13:52:38;15.05;;;5.88;;
70433;SDS011;57876;47.792;12.960;2022-08-25T13:55:03;12.95;;;6.47;;
70433;SDS011;57876;47.792;12.960;2022-08-25T13:57:28;11.20;;;5.40;;
70433;SDS011;57876;47.792;12.960;2022-08-25T14:00:04;14.70;;;6.25;;
70433;SDS011;57876;47.792;12.960;2022-08-25T14:05:07;14.05;;;6.32;;
70433;SDS011;57876;47.792;12.960;2022-08-25T14:07:32;13.80;;;6.77;;
70433;SDS011;57876;47.792;12.960;2022-08-25T14:09:58;13.85;;;5.88;;
70433;SDS011;57876;47.792;12.960;2022-08-25T14:12:41;15.83;;;6.00;;
70433;SDS011;57876;47.792;12.960;2022-08-25T14:17:40;13.73;;;6.45;;
70433;SDS011;57876;47.792;12.960;2022-08-25T14:20:14;13.35;;;6.32;;
70433;SDS011;57876;47.792;12.960;2022-08-25T14:22:40;13.07;;;6.07;;
70433;SDS011;57876;47.792;12.960;2022-08-25T14:25:05;13.97;;;6.10;;
70433;SDS011;57876;47.792;12.960;2022-08-25T14:27:29;13.45;;;5.78;;
70433;SDS011;57876;47.792;12.960;2022-08-25T14:29:54;12.40;;;5.93;;
70433;SDS011;57876;47.792;12.960;2022-08-25T14:32:18;12.50;;;5.93;;
70433;SDS011;57876;47.792;12.960;2022-08-25T14:34:43;11.85;;;5.72;;
70433;SDS011;57876;47.792;12.960;2022-08-25T14:37:09;14.05;;;6.78;;
70433;SDS011;57876;47.792;12.960;2022-08-25T14:39:38;13.70;;;5.60;;
70433;SDS011;57876;47.792;12.960;2022-08-25T14:42:02;12.73;;;5.85;;
70433;SDS011;57876;47.792;12.960;2022-08-25T14:44:27;11.10;;;5.10;;
70433;SDS011;57876;47.792;12.960;2022-08-25T14:46:52;13.90;;;5.70;;
70433;SDS011;57876;47.792;12.960;2022-08-25T14:49:20;14.13;;;6.38;;
70433;SDS011;57876;47.792;12.960;2022-08-25T14:51:47;14.10;;;5.60;;
70433;SDS011;57876;47.792;12.960;2022-08-25T14:54:12;10.95;;;5.63;;
70433;SDS011;57876;47.792;12.960;2022-08-25T14:56:38;11.70;;;5.90;;
70433;SDS011;57876;47.792;12.960;2022-08-25T14:59:02;10.95;;;5.45;;
70433;SDS011;57876;47.792;12.960;2022-08-25T15:01:27;13.03;;;6.27;;
70433;SDS011;57876;47.792;12.960;2022-08-25T15:03:53;12.02;;;6.03;;
70433;SDS011;57876;47.792;12.960;2022-08-25T15:06:20;12.82;;;6.07;;
70433;SDS011;57876;47.792;12.960;2022-08-25T15:08:45;13.10;;;5.80;;
70433;SDS011;57876;47.792;12.960;2022-08-25T15:11:28;14.52;;;5.85;;
70433;SDS011;57876;47.792;12.960;2022-08-25T15:13:54;12.88;;;6.07;;
70433;SDS011;57876;47.792;12.960;2022-08-25T15:16:38;12.43;;;6.17;;
70433;SDS011;57876;47.792;12.960;2022-08-25T15:19:08;14.90;;;5.57;;
70433;SDS011;57876;47.792;12.960;2022-08-25T15:21:37;11.05;;;5.10;;
70433;SDS011;57876;47.792;12.960;2022-08-25T15:24:06;11.95;;;5.68;;
70433;SDS011;57876;47.792;12.960;2022-08-25T15:26:33;12.02;;;5.63;;
70433;SDS011;57876;47.792;12.960;2022-08-25T15:29:03;11.10;;;5.20;;
70433;SDS011;57876;47.792;12.960;2022-08-25T15:31:29;10.45;;;5.60;;
70433;SDS011;57876;47.792;12.960;2022-08-25T15:33:53;10.13;;;5.43;;
70433;SDS011;57876;47.792;12.960;2022-08-25T15:36:18;11.60;;;5.90;;
70433;SDS011;57876;47.792;12.960;2022-08-25T15:38:46;9.83;;;5.07;;
70433;SDS011;57876;47.792;12.960;2022-08-25T15:41:11;9.88;;;5.28;;
70433;SDS011;57876;47.792;12.960;2022-08-25T15:43:36;12.00;;;5.70;;
70433;SDS011;57876;47.792;12.960;2022-08-25T15:46:00;12.33;;;5.63;;
70433;SDS011;57876;47.792;12.960;2022-08-25T15:48:27;12.30;;;5.45;;
70433;SDS011;57876;47.792;12.960;2022-08-25T15:50:52;12.37;;;5.87;;
70433;SDS011;57876;47.792;12.960;2022-08-25T15:53:18;14.52;;;5.55;;
70433;SDS011;57876;47.792;12.960;2022-08-25T15:55:44;12.57;;;5.53;;
70433;SDS011;57876;47.792;12.960;2022-08-25T15:58:08;11.60;;;5.77;;
70433;SDS011;57876;47.792;12.960;2022-08-25T16:00:33;13.70;;;5.67;;
70433;SDS011;57876;47.792;12.960;2022-08-25T16:02:57;13.30;;;6.00;;
70433;SDS011;57876;47.792;12.960;2022-08-25T16:05:21;10.00;;;5.15;;
70433;SDS011;57876;47.792;12.960;2022-08-25T16:07:46;12.87;;;6.07;;
70433;SDS011;57876;47.792;12.960;2022-08-25T16:10:10;12.03;;;6.07;;
70433;SDS011;57876;47.792;12.960;2022-08-25T16:12:35;10.80;;;5.70;;
70433;SDS011;57876;47.792;12.960;2022-08-25T16:15:00;11.50;;;6.10;;
70433;SDS011;57876;47.792;12.960;2022-08-25T16:17:24;12.73;;;5.95;;
70433;SDS011;57876;47.792;12.960;2022-08-25T16:19:49;10.33;;;5.83;;
70433;SDS011;57876;47.792;12.960;2022-08-25T16:22:14;11.73;;;5.63;;
70433;SDS011;57876;47.792;12.960;2022-08-25T16:24:39;13.07;;;6.10;;
70433;SDS011;57876;47.792;12.960;2022-08-25T16:27:04;12.53;;;5.60;;